sensor_id;sensor_type;location;lat;lon;timestamp;P1;durP1;ratioP1;P2;durP2;ratioP2
31018;SDS011;17689;45.610;5.858;2022-11-20T00:01:57;4.50;;;2.60;;
31018;SDS011;17689;45.610;5.858;2022-11-20T00:04:24;3.70;;;2.60;;
31018;SDS011;17689;45.610;5.858;2022-11-20T00:06:50;2.63;;;2.33;;
31018;SDS011;17689;45.610;5.858;2022-11-20T00:09:16;3.33;;;2.20;;
31018;SDS011;17689;45.610;5.858;2022-11-20T00:11:42;3.90;;;2.03;;
31018;SDS011;17689;45.610;5.858;2022-11-20T00:14:08;3.23;;;2.17;;
31018;SDS011;17689;45.610;5.858;2022-11-20T00:16:35;3.83;;;2.20;;
31018;SDS011;17689;45.610;5.858;2022-11-20T00:19:02;2.80;;;2.03;;
31018;SDS011;17689;45.610;5.858;2022-11-20T00:21:28;3.37;;;2.33;;
31018;SDS011;17689;45.610;5.858;2022-11-20T00:23:55;4.10;;;2.20;;
31018;SDS011;17689;45.610;5.858;2022-11-20T00:26:23;3.80;;;2.00;;
31018;SDS011;17689;45.610;5.858;2022-11-20T00:28:51;3.67;;;2.37;;
31018;SDS011;17689;45.610;5.858;2022-11-20T00:31:17;5.60;;;2.73;;
31018;SDS011;17689;45.610;5.858;2022-11-20T00:33:44;4.10;;;2.10;;
31018;SDS011;17689;45.610;5.858;2022-11-20T00:36:14;4.07;;;2.40;;
31018;SDS011;17689;45.610;5.858;2022-11-20T00:38:41;3.30;;;2.40;;
31018;SDS011;17689;45.610;5.858;2022-11-20T00:41:08;2.90;;;2.20;;
31018;SDS011;17689;45.610;5.858;2022-11-20T00:43:36;3.63;;;2.57;;
31018;SDS011;17689;45.610;5.858;2022-11-20T00:46:04;3.80;;;2.43;;
31018;SDS011;17689;45.610;5.858;2022-11-20T00:48:30;4.93;;;2.53;;
31018;SDS011;17689;45.610;5.858;2022-11-20T00:50:57;5.80;;;2.60;;
31018;SDS011;17689;45.610;5.858;2022-11-20T00:53:23;5.90;;;2.60;;
31018;SDS011;17689;45.610;5.858;2022-11-20T00:55:56;4.93;;;2.53;;
31018;SDS011;17689;45.610;5.858;2022-11-20T00:58:22;3.20;;;2.20;;
31018;SDS011;17689;45.610;5.858;2022-11-20T01:00:49;2.53;;;2.30;;
31018;SDS011;17689;45.610;5.858;2022-11-20T01:03:16;4.57;;;2.20;;
31018;SDS011;17689;45.610;5.858;2022-11-20T01:05:42;5.30;;;3.10;;
31018;SDS011;17689;45.610;5.858;2022-11-20T01:08:09;5.67;;;2.60;;
31018;SDS011;17689;45.610;5.858;2022-11-20T01:10:35;7.60;;;3.67;;
31018;SDS011;17689;45.610;5.858;2022-11-20T01:13:01;6.73;;;4.03;;
31018;SDS011;17689;45.610;5.858;2022-11-20T01:15:46;7.70;;;4.30;;
31018;SDS011;17689;45.610;5.858;2022-11-20T01:18:12;7.87;;;3.93;;
31018;SDS011;17689;45.610;5.858;2022-11-20T01:20:39;5.30;;;3.77;;
31018;SDS011;17689;45.610;5.858;2022-11-20T01:23:05;5.20;;;3.83;;
31018;SDS011;17689;45.610;5.858;2022-11-20T01:25:31;6.97;;;4.13;;
31018;SDS011;17689;45.610;5.858;2022-11-20T01:27:57;7.90;;;5.17;;
31018;SDS011;17689;45.610;5.858;2022-11-20T01:30:23;6.33;;;4.20;;
31018;SDS011;17689;45.610;5.858;2022-11-20T01:32:49;5.07;;;3.70;;
31018;SDS011;17689;45.610;5.858;2022-11-20T01:35:16;5.20;;;3.07;;
31018;SDS011;17689;45.610;5.858;2022-11-20T01:37:42;5.27;;;3.00;;
31018;SDS011;17689;45.610;5.858;2022-11-20T01:40:08;7.17;;;3.80;;
31018;SDS011;17689;45.610;5.858;2022-11-20T01:42:35;4.80;;;3.33;;
31018;SDS011;17689;45.610;5.858;2022-11-20T01:48:04;6.00;;;3.67;;
31018;SDS011;17689;45.610;5.858;2022-11-20T01:50:31;4.20;;;3.53;;
31018;SDS011;17689;45.610;5.858;2022-11-20T01:53:02;3.87;;;3.30;;
31018;SDS011;17689;45.610;5.858;2022-11-20T01:55:34;6.30;;;3.77;;
31018;SDS011;17689;45.610;5.858;2022-11-20T01:58:02;6.57;;;3.40;;
31018;SDS011;17689;45.610;5.858;2022-11-20T02:00:29;4.87;;;3.00;;
31018;SDS011;17689;45.610;5.858;2022-11-20T02:02:59;4.00;;;3.13;;
31018;SDS011;17689;45.610;5.858;2022-11-20T02:05:37;5.83;;;2.90;;
31018;SDS011;17689;45.610;5.858;2022-11-20T02:08:05;5.97;;;2.57;;
31018;SDS011;17689;45.610;5.858;2022-11-20T02:10:31;4.37;;;2.70;;
31018;SDS011;17689;45.610;5.858;2022-11-20T02:12:58;4.23;;;2.50;;
31018;SDS011;17689;45.610;5.858;2022-11-20T02:15:43;6.67;;;2.97;;
31018;SDS011;17689;45.610;5.858;2022-11-20T02:18:10;4.80;;;2.90;;
31018;SDS011;17689;45.610;5.858;2022-11-20T02:20:37;5.33;;;3.00;;
31018;SDS011;17689;45.610;5.858;2022-11-20T02:23:16;3.93;;;2.97;;
31018;SDS011;17689;45.610;5.858;2022-11-20T02:25:46;5.67;;;2.77;;
31018;SDS011;17689;45.610;5.858;2022-11-20T02:28:13;6.57;;;2.63;;
31018;SDS011;17689;45.610;5.858;2022-11-20T02:30:39;4.63;;;2.90;;
31018;SDS011;17689;45.610;5.858;2022-11-20T02:33:05;6.40;;;3.80;;
31018;SDS011;17689;45.610;5.858;2022-11-20T02:37:58;7.07;;;3.23;;
31018;SDS011;17689;45.610;5.858;2022-11-20T02:40:25;6.47;;;3.57;;
31018;SDS011;17689;45.610;5.858;2022-11-20T02:42:55;3.50;;;2.70;;
31018;SDS011;17689;45.610;5.858;2022-11-20T02:45:21;5.27;;;3.63;;
31018;SDS011;17689;45.610;5.858;2022-11-20T02:47:48;4.20;;;3.47;;
31018;SDS011;17689;45.610;5.858;2022-11-20T02:50:14;5.63;;;3.53;;
31018;SDS011;17689;45.610;5.858;2022-11-20T02:52:40;4.67;;;3.17;;
31018;SDS011;17689;45.610;5.858;2022-11-20T02:55:07;4.43;;;3.00;;
31018;SDS011;17689;45.610;5.858;2022-11-20T02:57:33;6.23;;;3.30;;
31018;SDS011;17689;45.610;5.858;2022-11-20T02:59:59;3.77;;;3.40;;
31018;SDS011;17689;45.610;5.858;2022-11-20T03:02:25;5.83;;;3.13;;
31018;SDS011;17689;45.610;5.858;2022-11-20T03:04:51;5.00;;;2.90;;
31018;SDS011;17689;45.610;5.858;2022-11-20T03:07:17;4.27;;;2.77;;
31018;SDS011;17689;45.610;5.858;2022-11-20T03:09:44;3.13;;;2.70;;
31018;SDS011;17689;45.610;5.858;2022-11-20T03:12:10;5.30;;;3.40;;
31018;SDS011;17689;45.610;5.858;2022-11-20T03:14:36;6.33;;;3.33;;
31018;SDS011;17689;45.610;5.858;2022-11-20T03:17:02;7.67;;;3.40;;
31018;SDS011;17689;45.610;5.858;2022-11-20T03:19:28;4.87;;;3.47;;
31018;SDS011;17689;45.610;5.858;2022-11-20T03:21:55;4.93;;;3.17;;
31018;SDS011;17689;45.610;5.858;2022-11-20T03:24:21;4.00;;;2.57;;
31018;SDS011;17689;45.610;5.858;2022-11-20T03:26:47;4.40;;;2.70;;
31018;SDS011;17689;45.610;5.858;2022-11-20T03:29:13;3.60;;;2.60;;
31018;SDS011;17689;45.610;5.858;2022-11-20T03:31:40;3.27;;;2.40;;
31018;SDS011;17689;45.610;5.858;2022-11-20T03:34:06;5.73;;;2.80;;
31018;SDS011;17689;45.610;5.858;2022-11-20T03:36:33;5.33;;;2.77;;
31018;SDS011;17689;45.610;5.858;2022-11-20T03:38:59;4.87;;;3.00;;
31018;SDS011;17689;45.610;5.858;2022-11-20T03:41:26;4.27;;;2.93;;
31018;SDS011;17689;45.610;5.858;2022-11-20T03:43:54;3.13;;;2.50;;
31018;SDS011;17689;45.610;5.858;2022-11-20T03:46:21;3.00;;;2.27;;
31018;SDS011;17689;45.610;5.858;2022-11-20T03:48:47;5.47;;;2.77;;
31018;SDS011;17689;45.610;5.858;2022-11-20T03:51:20;7.07;;;3.07;;
31018;SDS011;17689;45.610;5.858;2022-11-20T03:53:47;4.10;;;2.93;;
31018;SDS011;17689;45.610;5.858;2022-11-20T03:56:15;4.03;;;2.53;;
31018;SDS011;17689;45.610;5.858;2022-11-20T03:58:41;4.43;;;2.70;;
31018;SDS011;17689;45.610;5.858;2022-11-20T04:03:34;3.70;;;2.87;;
31018;SDS011;17689;45.610;5.858;2022-11-20T04:06:05;5.83;;;3.40;;
31018;SDS011;17689;45.610;5.858;2022-11-20T04:08:31;3.97;;;2.53;;
31018;SDS011;17689;45.610;5.858;2022-11-20T04:11:07;3.63;;;2.53;;
31018;SDS011;17689;45.610;5.858;2022-11-20T04:13:33;4.60;;;2.50;;
31018;SDS011;17689;45.610;5.858;2022-11-20T04:16:00;3.63;;;2.50;;
31018;SDS011;17689;45.610;5.858;2022-11-20T04:18:26;4.83;;;2.80;;
31018;SDS011;17689;45.610;5.858;2022-11-20T04:20:52;4.43;;;2.60;;
31018;SDS011;17689;45.610;5.858;2022-11-20T04:23:18;4.70;;;2.80;;
31018;SDS011;17689;45.610;5.858;2022-11-20T04:25:44;3.77;;;2.57;;
31018;SDS011;17689;45.610;5.858;2022-11-20T04:28:10;6.50;;;2.93;;
31018;SDS011;17689;45.610;5.858;2022-11-20T04:30:36;3.60;;;3.03;;
31018;SDS011;17689;45.610;5.858;2022-11-20T04:33:03;3.30;;;3.00;;
31018;SDS011;17689;45.610;5.858;2022-11-20T04:35:29;5.97;;;3.20;;
31018;SDS011;17689;45.610;5.858;2022-11-20T04:37:55;4.70;;;3.00;;
31018;SDS011;17689;45.610;5.858;2022-11-20T04:40:21;4.07;;;3.30;;
31018;SDS011;17689;45.610;5.858;2022-11-20T04:42:47;6.13;;;3.70;;
31018;SDS011;17689;45.610;5.858;2022-11-20T04:45:14;4.70;;;3.40;;
31018;SDS011;17689;45.610;5.858;2022-11-20T04:47:40;4.60;;;3.50;;
31018;SDS011;17689;45.610;5.858;2022-11-20T04:50:06;5.83;;;4.13;;
31018;SDS011;17689;45.610;5.858;2022-11-20T04:52:32;7.73;;;4.07;;
31018;SDS011;17689;45.610;5.858;2022-11-20T04:54:58;5.23;;;4.40;;
31018;SDS011;17689;45.610;5.858;2022-11-20T04:57:24;7.27;;;5.00;;
31018;SDS011;17689;45.610;5.858;2022-11-20T04:59:51;6.67;;;4.80;;
31018;SDS011;17689;45.610;5.858;2022-11-20T05:02:17;7.27;;;5.03;;
31018;SDS011;17689;45.610;5.858;2022-11-20T05:04:43;5.93;;;5.07;;
31018;SDS011;17689;45.610;5.858;2022-11-20T05:07:09;8.67;;;5.30;;
31018;SDS011;17689;45.610;5.858;2022-11-20T05:09:35;6.97;;;5.10;;
31018;SDS011;17689;45.610;5.858;2022-11-20T05:12:02;7.33;;;5.20;;
31018;SDS011;17689;45.610;5.858;2022-11-20T05:14:28;9.40;;;5.20;;
31018;SDS011;17689;45.610;5.858;2022-11-20T05:16:54;7.20;;;5.23;;
31018;SDS011;17689;45.610;5.858;2022-11-20T05:19:20;8.93;;;5.40;;
31018;SDS011;17689;45.610;5.858;2022-11-20T05:21:46;7.63;;;4.63;;
31018;SDS011;17689;45.610;5.858;2022-11-20T05:24:13;6.50;;;4.10;;
31018;SDS011;17689;45.610;5.858;2022-11-20T05:26:39;6.60;;;4.23;;
31018;SDS011;17689;45.610;5.858;2022-11-20T05:29:05;7.67;;;5.20;;
31018;SDS011;17689;45.610;5.858;2022-11-20T05:31:31;7.10;;;5.37;;
31018;SDS011;17689;45.610;5.858;2022-11-20T05:33:57;6.80;;;5.57;;
31018;SDS011;17689;45.610;5.858;2022-11-20T05:36:24;6.53;;;4.93;;
31018;SDS011;17689;45.610;5.858;2022-11-20T05:38:50;6.03;;;5.13;;
31018;SDS011;17689;45.610;5.858;2022-11-20T05:41:18;9.07;;;5.40;;
31018;SDS011;17689;45.610;5.858;2022-11-20T05:43:45;7.67;;;5.53;;
31018;SDS011;17689;45.610;5.858;2022-11-20T05:46:12;9.73;;;5.30;;
31018;SDS011;17689;45.610;5.858;2022-11-20T05:48:39;8.37;;;5.07;;
31018;SDS011;17689;45.610;5.858;2022-11-20T05:51:06;7.27;;;5.73;;
31018;SDS011;17689;45.610;5.858;2022-11-20T05:53:33;7.63;;;5.33;;
31018;SDS011;17689;45.610;5.858;2022-11-20T05:56:14;11.03;;;5.57;;
31018;SDS011;17689;45.610;5.858;2022-11-20T05:58:40;7.97;;;5.43;;
31018;SDS011;17689;45.610;5.858;2022-11-20T06:01:08;7.77;;;5.17;;
31018;SDS011;17689;45.610;5.858;2022-11-20T06:03:34;7.67;;;5.63;;
31018;SDS011;17689;45.610;5.858;2022-11-20T06:06:01;8.03;;;5.63;;
31018;SDS011;17689;45.610;5.858;2022-11-20T06:08:27;6.60;;;5.43;;
31018;SDS011;17689;45.610;5.858;2022-11-20T06:10:53;8.33;;;5.80;;
31018;SDS011;17689;45.610;5.858;2022-11-20T06:13:20;10.10;;;5.70;;
31018;SDS011;17689;45.610;5.858;2022-11-20T06:15:49;9.73;;;6.03;;
31018;SDS011;17689;45.610;5.858;2022-11-20T06:18:16;6.80;;;5.70;;
31018;SDS011;17689;45.610;5.858;2022-11-20T06:20:42;6.93;;;5.57;;
31018;SDS011;17689;45.610;5.858;2022-11-20T06:23:08;10.13;;;5.83;;
31018;SDS011;17689;45.610;5.858;2022-11-20T06:25:41;10.07;;;5.67;;
31018;SDS011;17689;45.610;5.858;2022-11-20T06:28:08;7.03;;;5.03;;
31018;SDS011;17689;45.610;5.858;2022-11-20T06:30:34;10.27;;;6.07;;
31018;SDS011;17689;45.610;5.858;2022-11-20T06:33:01;8.53;;;6.57;;
31018;SDS011;17689;45.610;5.858;2022-11-20T06:35:27;6.83;;;4.87;;
31018;SDS011;17689;45.610;5.858;2022-11-20T06:37:53;7.93;;;5.27;;
31018;SDS011;17689;45.610;5.858;2022-11-20T06:40:19;9.27;;;5.70;;
31018;SDS011;17689;45.610;5.858;2022-11-20T06:42:45;6.33;;;5.10;;
31018;SDS011;17689;45.610;5.858;2022-11-20T06:45:12;6.13;;;5.13;;
31018;SDS011;17689;45.610;5.858;2022-11-20T06:47:38;9.37;;;6.00;;
31018;SDS011;17689;45.610;5.858;2022-11-20T06:50:04;8.30;;;6.50;;
31018;SDS011;17689;45.610;5.858;2022-11-20T06:52:30;11.57;;;6.70;;
31018;SDS011;17689;45.610;5.858;2022-11-20T06:54:56;10.57;;;6.80;;
31018;SDS011;17689;45.610;5.858;2022-11-20T06:57:22;10.63;;;7.53;;
31018;SDS011;17689;45.610;5.858;2022-11-20T06:59:49;8.73;;;6.50;;
31018;SDS011;17689;45.610;5.858;2022-11-20T07:02:15;7.13;;;6.10;;
31018;SDS011;17689;45.610;5.858;2022-11-20T07:04:41;9.90;;;6.57;;
31018;SDS011;17689;45.610;5.858;2022-11-20T07:07:08;7.30;;;6.00;;
31018;SDS011;17689;45.610;5.858;2022-11-20T07:09:34;7.70;;;6.70;;
31018;SDS011;17689;45.610;5.858;2022-11-20T07:12:00;11.10;;;6.77;;
31018;SDS011;17689;45.610;5.858;2022-11-20T07:14:26;9.77;;;7.07;;
31018;SDS011;17689;45.610;5.858;2022-11-20T07:16:52;10.33;;;6.87;;
31018;SDS011;17689;45.610;5.858;2022-11-20T07:19:19;8.07;;;6.57;;
31018;SDS011;17689;45.610;5.858;2022-11-20T07:21:45;10.57;;;7.53;;
31018;SDS011;17689;45.610;5.858;2022-11-20T07:24:11;14.47;;;7.50;;
31018;SDS011;17689;45.610;5.858;2022-11-20T07:26:37;8.83;;;7.20;;
31018;SDS011;17689;45.610;5.858;2022-11-20T07:29:03;14.37;;;7.93;;
31018;SDS011;17689;45.610;5.858;2022-11-20T07:31:29;12.70;;;9.00;;
31018;SDS011;17689;45.610;5.858;2022-11-20T07:33:56;11.50;;;8.53;;
31018;SDS011;17689;45.610;5.858;2022-11-20T07:36:22;11.33;;;9.30;;
31018;SDS011;17689;45.610;5.858;2022-11-20T07:38:48;13.43;;;9.13;;
31018;SDS011;17689;45.610;5.858;2022-11-20T07:41:14;10.43;;;8.67;;
31018;SDS011;17689;45.610;5.858;2022-11-20T07:43:41;12.00;;;9.30;;
31018;SDS011;17689;45.610;5.858;2022-11-20T07:46:07;12.27;;;8.87;;
31018;SDS011;17689;45.610;5.858;2022-11-20T07:48:33;12.13;;;9.73;;
31018;SDS011;17689;45.610;5.858;2022-11-20T07:51:00;13.77;;;9.20;;
31018;SDS011;17689;45.610;5.858;2022-11-20T07:53:26;12.80;;;8.13;;
31018;SDS011;17689;45.610;5.858;2022-11-20T07:55:52;10.97;;;8.17;;
31018;SDS011;17689;45.610;5.858;2022-11-20T07:58:19;9.53;;;6.57;;
31018;SDS011;17689;45.610;5.858;2022-11-20T08:00:46;9.50;;;6.37;;
31018;SDS011;17689;45.610;5.858;2022-11-20T08:03:12;8.37;;;6.13;;
31018;SDS011;17689;45.610;5.858;2022-11-20T08:05:39;9.07;;;6.13;;
31018;SDS011;17689;45.610;5.858;2022-11-20T08:08:06;7.53;;;5.63;;
31018;SDS011;17689;45.610;5.858;2022-11-20T08:10:33;9.13;;;5.87;;
31018;SDS011;17689;45.610;5.858;2022-11-20T08:12:59;8.57;;;6.50;;
31018;SDS011;17689;45.610;5.858;2022-11-20T08:15:47;14.00;;;8.07;;
31018;SDS011;17689;45.610;5.858;2022-11-20T08:18:17;11.90;;;8.20;;
31018;SDS011;17689;45.610;5.858;2022-11-20T08:20:44;12.40;;;8.93;;
31018;SDS011;17689;45.610;5.858;2022-11-20T08:23:11;10.83;;;8.53;;
31018;SDS011;17689;45.610;5.858;2022-11-20T08:25:37;12.67;;;8.27;;
31018;SDS011;17689;45.610;5.858;2022-11-20T08:28:05;14.43;;;9.67;;
31018;SDS011;17689;45.610;5.858;2022-11-20T08:30:32;13.47;;;10.43;;
31018;SDS011;17689;45.610;5.858;2022-11-20T08:33:05;13.17;;;9.40;;
31018;SDS011;17689;45.610;5.858;2022-11-20T08:35:34;12.67;;;9.60;;
31018;SDS011;17689;45.610;5.858;2022-11-20T08:38:01;11.47;;;9.13;;
31018;SDS011;17689;45.610;5.858;2022-11-20T08:40:28;11.70;;;8.93;;
31018;SDS011;17689;45.610;5.858;2022-11-20T08:42:54;13.30;;;9.53;;
31018;SDS011;17689;45.610;5.858;2022-11-20T08:45:21;11.83;;;9.53;;
31018;SDS011;17689;45.610;5.858;2022-11-20T08:47:47;13.67;;;9.53;;
31018;SDS011;17689;45.610;5.858;2022-11-20T08:50:15;13.47;;;8.93;;
31018;SDS011;17689;45.610;5.858;2022-11-20T08:52:41;12.20;;;8.83;;
31018;SDS011;17689;45.610;5.858;2022-11-20T08:55:08;12.00;;;8.40;;
31018;SDS011;17689;45.610;5.858;2022-11-20T08:57:35;11.37;;;8.97;;
31018;SDS011;17689;45.610;5.858;2022-11-20T09:00:03;12.43;;;9.23;;
31018;SDS011;17689;45.610;5.858;2022-11-20T09:02:30;11.47;;;8.57;;
31018;SDS011;17689;45.610;5.858;2022-11-20T09:04:57;9.63;;;7.80;;
31018;SDS011;17689;45.610;5.858;2022-11-20T09:07:24;10.20;;;7.83;;
31018;SDS011;17689;45.610;5.858;2022-11-20T09:09:50;13.17;;;8.70;;
31018;SDS011;17689;45.610;5.858;2022-11-20T09:12:16;12.97;;;9.13;;
31018;SDS011;17689;45.610;5.858;2022-11-20T09:14:42;9.73;;;8.73;;
31018;SDS011;17689;45.610;5.858;2022-11-20T09:17:09;10.60;;;8.40;;
31018;SDS011;17689;45.610;5.858;2022-11-20T09:19:38;10.90;;;8.00;;
31018;SDS011;17689;45.610;5.858;2022-11-20T09:22:05;12.23;;;8.90;;
31018;SDS011;17689;45.610;5.858;2022-11-20T09:24:31;10.00;;;8.03;;
31018;SDS011;17689;45.610;5.858;2022-11-20T09:26:57;9.97;;;7.73;;
31018;SDS011;17689;45.610;5.858;2022-11-20T09:29:24;9.50;;;8.23;;
31018;SDS011;17689;45.610;5.858;2022-11-20T09:31:50;7.67;;;6.87;;
31018;SDS011;17689;45.610;5.858;2022-11-20T09:34:16;9.80;;;7.10;;
31018;SDS011;17689;45.610;5.858;2022-11-20T09:36:42;11.00;;;6.83;;
31018;SDS011;17689;45.610;5.858;2022-11-20T09:39:09;8.00;;;6.50;;
31018;SDS011;17689;45.610;5.858;2022-11-20T09:46:51;8.47;;;6.90;;
31018;SDS011;17689;45.610;5.858;2022-11-20T09:52:14;10.07;;;6.67;;
31018;SDS011;17689;45.610;5.858;2022-11-20T09:54:41;9.37;;;6.27;;
31018;SDS011;17689;45.610;5.858;2022-11-20T09:57:10;7.50;;;6.03;;
31018;SDS011;17689;45.610;5.858;2022-11-20T10:02:11;7.57;;;5.63;;
31018;SDS011;17689;45.610;5.858;2022-11-20T10:04:38;8.13;;;6.17;;
31018;SDS011;17689;45.610;5.858;2022-11-20T10:07:13;52.03;;;33.53;;
31018;SDS011;17689;45.610;5.858;2022-11-20T10:09:43;8.47;;;6.40;;
31018;SDS011;17689;45.610;5.858;2022-11-20T10:25:28;9.07;;;5.60;;
31018;SDS011;17689;45.610;5.858;2022-11-20T10:30:30;6.60;;;5.80;;
31018;SDS011;17689;45.610;5.858;2022-11-20T10:33:11;8.20;;;5.97;;
31018;SDS011;17689;45.610;5.858;2022-11-20T10:35:49;6.00;;;5.33;;
31018;SDS011;17689;45.610;5.858;2022-11-20T10:38:35;6.10;;;4.57;;
31018;SDS011;17689;45.610;5.858;2022-11-20T10:41:03;5.47;;;4.37;;
31018;SDS011;17689;45.610;5.858;2022-11-20T10:43:52;5.83;;;4.17;;
31018;SDS011;17689;45.610;5.858;2022-11-20T10:46:20;6.57;;;3.67;;
31018;SDS011;17689;45.610;5.858;2022-11-20T10:48:47;7.77;;;4.30;;
31018;SDS011;17689;45.610;5.858;2022-11-20T10:56:35;7.73;;;4.20;;
31018;SDS011;17689;45.610;5.858;2022-11-20T11:01:48;5.07;;;3.90;;
31018;SDS011;17689;45.610;5.858;2022-11-20T11:04:19;5.77;;;4.30;;
31018;SDS011;17689;45.610;5.858;2022-11-20T11:06:49;6.70;;;4.27;;
31018;SDS011;17689;45.610;5.858;2022-11-20T11:09:20;5.20;;;4.10;;
31018;SDS011;17689;45.610;5.858;2022-11-20T11:11:47;4.30;;;3.90;;
31018;SDS011;17689;45.610;5.858;2022-11-20T11:14:14;5.10;;;3.60;;
31018;SDS011;17689;45.610;5.858;2022-11-20T11:16:50;5.87;;;4.17;;
31018;SDS011;17689;45.610;5.858;2022-11-20T11:19:17;6.13;;;3.93;;
31018;SDS011;17689;45.610;5.858;2022-11-20T11:21:47;5.97;;;3.93;;
31018;SDS011;17689;45.610;5.858;2022-11-20T11:24:23;4.83;;;4.00;;
31018;SDS011;17689;45.610;5.858;2022-11-20T11:29:23;6.60;;;3.70;;
31018;SDS011;17689;45.610;5.858;2022-11-20T11:32:02;5.43;;;3.30;;
31018;SDS011;17689;45.610;5.858;2022-11-20T11:34:28;4.47;;;3.50;;
31018;SDS011;17689;45.610;5.858;2022-11-20T11:36:57;3.70;;;3.10;;
31018;SDS011;17689;45.610;5.858;2022-11-20T11:39:25;4.70;;;2.90;;
31018;SDS011;17689;45.610;5.858;2022-11-20T11:41:52;6.13;;;3.13;;
31018;SDS011;17689;45.610;5.858;2022-11-20T11:44:19;4.20;;;2.97;;
31018;SDS011;17689;45.610;5.858;2022-11-20T11:47:05;5.00;;;2.97;;
31018;SDS011;17689;45.610;5.858;2022-11-20T11:49:34;5.50;;;3.23;;
31018;SDS011;17689;45.610;5.858;2022-11-20T11:52:14;3.53;;;3.03;;
31018;SDS011;17689;45.610;5.858;2022-11-20T11:54:49;4.93;;;3.10;;
31018;SDS011;17689;45.610;5.858;2022-11-20T11:57:20;4.67;;;3.40;;
31018;SDS011;17689;45.610;5.858;2022-11-20T12:00:02;3.50;;;3.20;;
31018;SDS011;17689;45.610;5.858;2022-11-20T12:02:34;3.97;;;3.17;;
31018;SDS011;17689;45.610;5.858;2022-11-20T12:05:08;3.73;;;3.10;;
31018;SDS011;17689;45.610;5.858;2022-11-20T12:07:41;3.57;;;2.90;;
31018;SDS011;17689;45.610;5.858;2022-11-20T12:10:19;5.13;;;3.30;;
31018;SDS011;17689;45.610;5.858;2022-11-20T12:12:48;4.10;;;3.60;;
31018;SDS011;17689;45.610;5.858;2022-11-20T12:15:16;3.83;;;3.20;;
31018;SDS011;17689;45.610;5.858;2022-11-20T12:17:48;3.60;;;3.10;;
31018;SDS011;17689;45.610;5.858;2022-11-20T12:20:14;3.83;;;3.40;;
31018;SDS011;17689;45.610;5.858;2022-11-20T12:22:55;4.77;;;3.50;;
31018;SDS011;17689;45.610;5.858;2022-11-20T12:25:24;4.33;;;3.07;;
31018;SDS011;17689;45.610;5.858;2022-11-20T12:30:18;4.00;;;2.90;;
31018;SDS011;17689;45.610;5.858;2022-11-20T12:40:32;3.73;;;3.10;;
31018;SDS011;17689;45.610;5.858;2022-11-20T12:46:16;2.50;;;2.30;;
31018;SDS011;17689;45.610;5.858;2022-11-20T12:48:50;3.10;;;2.60;;
31018;SDS011;17689;45.610;5.858;2022-11-20T12:56:20;3.40;;;2.40;;
31018;SDS011;17689;45.610;5.858;2022-11-20T12:58:54;4.57;;;2.30;;
31018;SDS011;17689;45.610;5.858;2022-11-20T13:06:50;3.40;;;2.40;;
31018;SDS011;17689;45.610;5.858;2022-11-20T13:09:17;3.07;;;2.40;;
31018;SDS011;17689;45.610;5.858;2022-11-20T13:14:20;2.57;;;2.30;;
31018;SDS011;17689;45.610;5.858;2022-11-20T13:19:16;2.53;;;2.00;;
31018;SDS011;17689;45.610;5.858;2022-11-20T13:21:44;2.97;;;2.07;;
31018;SDS011;17689;45.610;5.858;2022-11-20T13:26:59;2.47;;;2.27;;
31018;SDS011;17689;45.610;5.858;2022-11-20T13:29:25;3.23;;;2.20;;
31018;SDS011;17689;45.610;5.858;2022-11-20T13:32:00;3.33;;;2.40;;
31018;SDS011;17689;45.610;5.858;2022-11-20T13:34:27;2.47;;;2.20;;
31018;SDS011;17689;45.610;5.858;2022-11-20T13:36:55;2.60;;;1.90;;
31018;SDS011;17689;45.610;5.858;2022-11-20T13:39:34;3.20;;;1.97;;
31018;SDS011;17689;45.610;5.858;2022-11-20T13:44:42;3.17;;;2.00;;
31018;SDS011;17689;45.610;5.858;2022-11-20T13:47:27;2.80;;;1.90;;
31018;SDS011;17689;45.610;5.858;2022-11-20T13:49:54;3.80;;;2.20;;
31018;SDS011;17689;45.610;5.858;2022-11-20T14:00:16;2.60;;;1.73;;
31018;SDS011;17689;45.610;5.858;2022-11-20T14:02:43;3.10;;;1.70;;
31018;SDS011;17689;45.610;5.858;2022-11-20T14:05:17;2.30;;;1.50;;
31018;SDS011;17689;45.610;5.858;2022-11-20T14:07:44;1.93;;;1.70;;
31018;SDS011;17689;45.610;5.858;2022-11-20T14:10:24;1.60;;;1.43;;
31018;SDS011;17689;45.610;5.858;2022-11-20T14:12:50;1.77;;;1.60;;
31018;SDS011;17689;45.610;5.858;2022-11-20T14:15:28;2.33;;;1.50;;
31018;SDS011;17689;45.610;5.858;2022-11-20T14:17:55;1.93;;;1.60;;
31018;SDS011;17689;45.610;5.858;2022-11-20T14:20:21;3.60;;;1.80;;
31018;SDS011;17689;45.610;5.858;2022-11-20T14:22:50;2.23;;;1.70;;
31018;SDS011;17689;45.610;5.858;2022-11-20T14:27:43;2.07;;;1.87;;
31018;SDS011;17689;45.610;5.858;2022-11-20T14:30:14;3.10;;;2.37;;
31018;SDS011;17689;45.610;5.858;2022-11-20T14:32:40;3.13;;;2.77;;
31018;SDS011;17689;45.610;5.858;2022-11-20T14:35:08;3.97;;;3.37;;
31018;SDS011;17689;45.610;5.858;2022-11-20T14:37:38;4.80;;;4.27;;
31018;SDS011;17689;45.610;5.858;2022-11-20T14:40:20;4.43;;;3.80;;
31018;SDS011;17689;45.610;5.858;2022-11-20T14:42:47;3.70;;;3.10;;
31018;SDS011;17689;45.610;5.858;2022-11-20T14:45:13;3.57;;;2.73;;
31018;SDS011;17689;45.610;5.858;2022-11-20T14:47:39;2.97;;;2.10;;
31018;SDS011;17689;45.610;5.858;2022-11-20T14:50:11;2.67;;;1.93;;
31018;SDS011;17689;45.610;5.858;2022-11-20T14:52:38;2.53;;;1.70;;
31018;SDS011;17689;45.610;5.858;2022-11-20T14:55:04;3.07;;;1.93;;
31018;SDS011;17689;45.610;5.858;2022-11-20T14:57:35;2.20;;;1.97;;
31018;SDS011;17689;45.610;5.858;2022-11-20T15:02:31;3.57;;;2.17;;
31018;SDS011;17689;45.610;5.858;2022-11-20T15:04:57;3.13;;;2.17;;
31018;SDS011;17689;45.610;5.858;2022-11-20T15:07:32;2.20;;;1.97;;
31018;SDS011;17689;45.610;5.858;2022-11-20T15:10:03;3.73;;;2.20;;
31018;SDS011;17689;45.610;5.858;2022-11-20T15:12:30;2.40;;;2.03;;
31018;SDS011;17689;45.610;5.858;2022-11-20T15:14:57;2.23;;;1.87;;
31018;SDS011;17689;45.610;5.858;2022-11-20T15:17:23;4.03;;;2.80;;
31018;SDS011;17689;45.610;5.858;2022-11-20T15:19:50;4.07;;;3.10;;
31018;SDS011;17689;45.610;5.858;2022-11-20T15:22:16;4.90;;;3.37;;
31018;SDS011;17689;45.610;5.858;2022-11-20T15:24:42;5.37;;;3.40;;
31018;SDS011;17689;45.610;5.858;2022-11-20T15:27:09;3.00;;;2.67;;
31018;SDS011;17689;45.610;5.858;2022-11-20T15:29:36;4.60;;;2.87;;
31018;SDS011;17689;45.610;5.858;2022-11-20T15:32:02;3.33;;;2.60;;
31018;SDS011;17689;45.610;5.858;2022-11-20T15:34:28;3.07;;;2.73;;
31018;SDS011;17689;45.610;5.858;2022-11-20T15:36:55;5.27;;;3.00;;
31018;SDS011;17689;45.610;5.858;2022-11-20T15:39:21;3.47;;;2.47;;
31018;SDS011;17689;45.610;5.858;2022-11-20T15:41:47;3.40;;;2.83;;
31018;SDS011;17689;45.610;5.858;2022-11-20T15:44:13;3.13;;;2.70;;
31018;SDS011;17689;45.610;5.858;2022-11-20T15:46:40;3.23;;;2.50;;
31018;SDS011;17689;45.610;5.858;2022-11-20T15:49:11;4.33;;;2.73;;
31018;SDS011;17689;45.610;5.858;2022-11-20T15:51:39;4.37;;;2.50;;
31018;SDS011;17689;45.610;5.858;2022-11-20T15:54:10;3.07;;;2.73;;
31018;SDS011;17689;45.610;5.858;2022-11-20T15:56:37;7.77;;;4.67;;
31018;SDS011;17689;45.610;5.858;2022-11-20T15:59:03;5.77;;;4.10;;
31018;SDS011;17689;45.610;5.858;2022-11-20T16:01:29;4.57;;;2.77;;
31018;SDS011;17689;45.610;5.858;2022-11-20T16:03:55;5.60;;;2.80;;
31018;SDS011;17689;45.610;5.858;2022-11-20T16:06:21;5.37;;;2.60;;
31018;SDS011;17689;45.610;5.858;2022-11-20T16:08:48;3.43;;;2.20;;
31018;SDS011;17689;45.610;5.858;2022-11-20T16:11:15;2.97;;;2.20;;
31018;SDS011;17689;45.610;5.858;2022-11-20T16:13:41;4.73;;;2.40;;
31018;SDS011;17689;45.610;5.858;2022-11-20T16:16:31;3.67;;;2.67;;
31018;SDS011;17689;45.610;5.858;2022-11-20T16:18:58;5.10;;;3.20;;
31018;SDS011;17689;45.610;5.858;2022-11-20T16:21:25;3.73;;;2.80;;
31018;SDS011;17689;45.610;5.858;2022-11-20T16:24:01;6.17;;;3.47;;